sensor_id;sensor_type;location;lat;lon;timestamp;temperature;humidity
14475;DHT22;7323;50.848;4.334;2024-01-15T00:01:17;3.00;51.30
14475;DHT22;7323;50.848;4.334;2024-01-15T00:03:43;3.10;53.60
14475;DHT22;7323;50.848;4.334;2024-01-15T00:06:08;3.20;53.90
14475;DHT22;7323;50.848;4.334;2024-01-15T00:08:34;3.10;52.50
14475;DHT22;7323;50.848;4.334;2024-01-15T00:11:00;3.20;53.40
14475;DHT22;7323;50.848;4.334;2024-01-15T00:13:25;3.40;50.90
14475;DHT22;7323;50.848;4.334;2024-01-15T00:15:51;3.40;51.30
14475;DHT22;7323;50.848;4.334;2024-01-15T00:18:17;3.30;49.10
14475;DHT22;7323;50.848;4.334;2024-01-15T00:20:42;3.30;47.10
14475;DHT22;7323;50.848;4.334;2024-01-15T00:23:08;3.20;46.60
14475;DHT22;7323;50.848;4.334;2024-01-15T00:25:34;3.10;49.70
14475;DHT22;7323;50.848;4.334;2024-01-15T00:27:59;3.30;49.80
14475;DHT22;7323;50.848;4.334;2024-01-15T00:30:25;3.20;48.30
14475;DHT22;7323;50.848;4.334;2024-01-15T00:32:51;3.20;50.10
14475;DHT22;7323;50.848;4.334;2024-01-15T00:35:16;3.10;53.30
14475;DHT22;7323;50.848;4.334;2024-01-15T00:37:42;3.10;55.00
14475;DHT22;7323;50.848;4.334;2024-01-15T00:40:08;3.10;59.40
14475;DHT22;7323;50.848;4.334;2024-01-15T00:42:34;3.20;60.60
14475;DHT22;7323;50.848;4.334;2024-01-15T00:44:59;3.10;61.30
14475;DHT22;7323;50.848;4.334;2024-01-15T00:47:25;3.20;61.20
14475;DHT22;7323;50.848;4.334;2024-01-15T00:49:51;3.20;60.10
14475;DHT22;7323;50.848;4.334;2024-01-15T00:52:17;3.30;61.10
14475;DHT22;7323;50.848;4.334;2024-01-15T00:54:42;3.20;60.10
14475;DHT22;7323;50.848;4.334;2024-01-15T00:57:08;3.30;64.50
14475;DHT22;7323;50.848;4.334;2024-01-15T00:59:34;3.20;67.20
14475;DHT22;7323;50.848;4.334;2024-01-15T01:01:59;3.20;68.70
14475;DHT22;7323;50.848;4.334;2024-01-15T01:04:25;3.20;71.10
14475;DHT22;7323;50.848;4.334;2024-01-15T01:06:50;3.30;71.90
14475;DHT22;7323;50.848;4.334;2024-01-15T01:09:16;3.40;70.80
14475;DHT22;7323;50.848;4.334;2024-01-15T01:11:42;3.40;71.40
14475;DHT22;7323;50.848;4.334;2024-01-15T01:14:07;3.50;72.50
14475;DHT22;7323;50.848;4.334;2024-01-15T01:16:33;3.40;72.30
14475;DHT22;7323;50.848;4.334;2024-01-15T01:19:05;3.40;73.50
14475;DHT22;7323;50.848;4.334;2024-01-15T01:21:31;3.60;73.40
14475;DHT22;7323;50.848;4.334;2024-01-15T01:23:57;3.60;71.30
14475;DHT22;7323;50.848;4.334;2024-01-15T01:26:23;3.60;67.80
14475;DHT22;7323;50.848;4.334;2024-01-15T01:28:49;3.80;64.60
14475;DHT22;7323;50.848;4.334;2024-01-15T01:31:15;3.70;60.70
14475;DHT22;7323;50.848;4.334;2024-01-15T01:33:42;3.60;60.20
14475;DHT22;7323;50.848;4.334;2024-01-15T01:36:10;3.80;62.50
14475;DHT22;7323;50.848;4.334;2024-01-15T01:38:37;3.70;59.80
14475;DHT22;7323;50.848;4.334;2024-01-15T01:41:03;3.80;58.40
14475;DHT22;7323;50.848;4.334;2024-01-15T01:43:29;3.60;60.20
14475;DHT22;7323;50.848;4.334;2024-01-15T01:45:56;3.60;62.70
14475;DHT22;7323;50.848;4.334;2024-01-15T01:48:23;3.70;64.20
14475;DHT22;7323;50.848;4.334;2024-01-15T01:50:50;3.60;62.10
14475;DHT22;7323;50.848;4.334;2024-01-15T01:53:16;3.70;69.70
14475;DHT22;7323;50.848;4.334;2024-01-15T01:55:42;3.70;68.80
14475;DHT22;7323;50.848;4.334;2024-01-15T01:58:08;3.60;70.70
14475;DHT22;7323;50.848;4.334;2024-01-15T02:00:34;3.50;71.50
14475;DHT22;7323;50.848;4.334;2024-01-15T02:03:00;3.50;74.70
14475;DHT22;7323;50.848;4.334;2024-01-15T02:05:27;3.70;78.20
14475;DHT22;7323;50.848;4.334;2024-01-15T02:07:53;3.60;82.90
14475;DHT22;7323;50.848;4.334;2024-01-15T02:10:18;3.60;87.10
14475;DHT22;7323;50.848;4.334;2024-01-15T02:12:44;3.60;83.40
14475;DHT22;7323;50.848;4.334;2024-01-15T02:15:11;3.60;82.30
14475;DHT22;7323;50.848;4.334;2024-01-15T02:17:57;3.60;79.70
14475;DHT22;7323;50.848;4.334;2024-01-15T02:20:23;3.50;81.50
14475;DHT22;7323;50.848;4.334;2024-01-15T02:22:48;3.50;88.20
14475;DHT22;7323;50.848;4.334;2024-01-15T02:25:14;3.50;91.10
14475;DHT22;7323;50.848;4.334;2024-01-15T02:27:40;3.50;91.00
14475;DHT22;7323;50.848;4.334;2024-01-15T02:30:07;3.50;94.00
14475;DHT22;7323;50.848;4.334;2024-01-15T02:32:33;3.50;96.00
14475;DHT22;7323;50.848;4.334;2024-01-15T02:34:59;3.60;95.90
14475;DHT22;7323;50.848;4.334;2024-01-15T02:37:25;3.50;94.70
14475;DHT22;7323;50.848;4.334;2024-01-15T02:39:50;3.50;97.70
14475;DHT22;7323;50.848;4.334;2024-01-15T02:42:17;3.60;99.90
14475;DHT22;7323;50.848;4.334;2024-01-15T02:44:42;3.50;98.60
14475;DHT22;7323;50.848;4.334;2024-01-15T02:47:08;3.40;98.30
14475;DHT22;7323;50.848;4.334;2024-01-15T02:49:33;3.50;99.50
14475;DHT22;7323;50.848;4.334;2024-01-15T02:51:59;3.60;97.20
14475;DHT22;7323;50.848;4.334;2024-01-15T02:54:25;3.60;95.50
14475;DHT22;7323;50.848;4.334;2024-01-15T02:56:50;3.40;93.70
14475;DHT22;7323;50.848;4.334;2024-01-15T02:59:16;3.50;93.80
14475;DHT22;7323;50.848;4.334;2024-01-15T03:01:42;3.30;93.00
14475;DHT22;7323;50.848;4.334;2024-01-15T03:04:07;3.30;94.10
14475;DHT22;7323;50.848;4.334;2024-01-15T03:06:33;3.30;95.90
14475;DHT22;7323;50.848;4.334;2024-01-15T03:08:59;3.20;97.00
14475;DHT22;7323;50.848;4.334;2024-01-15T03:11:25;3.20;96.80
14475;DHT22;7323;50.848;4.334;2024-01-15T03:13:51;3.10;97.30
14475;DHT22;7323;50.848;4.334;2024-01-15T03:16:17;3.20;99.10
14475;DHT22;7323;50.848;4.334;2024-01-15T03:18:45;3.30;99.80
14475;DHT22;7323;50.848;4.334;2024-01-15T03:21:11;3.20;98.90
14475;DHT22;7323;50.848;4.334;2024-01-15T03:23:36;3.30;99.90
14475;DHT22;7323;50.848;4.334;2024-01-15T03:26:02;3.30;99.60
14475;DHT22;7323;50.848;4.334;2024-01-15T03:28:28;3.20;98.60
14475;DHT22;7323;50.848;4.334;2024-01-15T03:30:55;3.20;99.20
14475;DHT22;7323;50.848;4.334;2024-01-15T03:33:21;3.20;99.80
14475;DHT22;7323;50.848;4.334;2024-01-15T03:35:47;3.10;99.90
14475;DHT22;7323;50.848;4.334;2024-01-15T03:38:12;3.00;99.90
14475;DHT22;7323;50.848;4.334;2024-01-15T03:40:38;3.10;99.90
14475;DHT22;7323;50.848;4.334;2024-01-15T03:43:03;3.00;99.90
14475;DHT22;7323;50.848;4.334;2024-01-15T03:45:29;2.90;99.90
14475;DHT22;7323;50.848;4.334;2024-01-15T03:47:55;2.90;99.90
14475;DHT22;7323;50.848;4.334;2024-01-15T03:50:20;3.00;99.90
14475;DHT22;7323;50.848;4.334;2024-01-15T03:52:46;3.00;99.90
14475;DHT22;7323;50.848;4.334;2024-01-15T03:55:12;2.90;99.90
14475;DHT22;7323;50.848;4.334;2024-01-15T03:57:37;3.00;99.90
14475;DHT22;7323;50.848;4.334;2024-01-15T04:00:03;3.00;99.90
14475;DHT22;7323;50.848;4.334;2024-01-15T04:02:29;3.00;99.90
14475;DHT22;7323;50.848;4.334;2024-01-15T04:04:55;3.00;99.90
14475;DHT22;7323;50.848;4.334;2024-01-15T04:07:20;3.10;99.90
14475;DHT22;7323;50.848;4.334;2024-01-15T04:09:46;3.20;99.90
14475;DHT22;7323;50.848;4.334;2024-01-15T04:12:11;3.00;99.90
14475;DHT22;7323;50.848;4.334;2024-01-15T04:14:37;3.20;99.90
14475;DHT22;7323;50.848;4.334;2024-01-15T04:17:02;3.20;99.90
14475;DHT22;7323;50.848;4.334;2024-01-15T04:19:28;3.20;99.10
14475;DHT22;7323;50.848;4.334;2024-01-15T04:21:54;3.20;98.80
14475;DHT22;7323;50.848;4.334;2024-01-15T04:24:19;3.30;98.10
14475;DHT22;7323;50.848;4.334;2024-01-15T04:26:45;3.40;96.60
14475;DHT22;7323;50.848;4.334;2024-01-15T04:29:11;3.40;93.90
14475;DHT22;7323;50.848;4.334;2024-01-15T04:31:37;3.40;90.40
14475;DHT22;7323;50.848;4.334;2024-01-15T04:34:03;3.50;85.50
14475;DHT22;7323;50.848;4.334;2024-01-15T04:36:28;3.40;80.60
14475;DHT22;7323;50.848;4.334;2024-01-15T04:38:54;3.40;78.20
14475;DHT22;7323;50.848;4.334;2024-01-15T04:41:20;3.40;76.60
14475;DHT22;7323;50.848;4.334;2024-01-15T04:43:46;3.30;76.90
14475;DHT22;7323;50.848;4.334;2024-01-15T04:46:12;3.40;80.70
14475;DHT22;7323;50.848;4.334;2024-01-15T04:48:37;3.40;78.30
14475;DHT22;7323;50.848;4.334;2024-01-15T04:51:08;3.50;76.60
14475;DHT22;7323;50.848;4.334;2024-01-15T04:53:35;3.40;77.30
14475;DHT22;7323;50.848;4.334;2024-01-15T04:56:01;3.40;77.00
14475;DHT22;7323;50.848;4.334;2024-01-15T04:58:27;3.40;73.30
14475;DHT22;7323;50.848;4.334;2024-01-15T05:00:53;3.40;74.00
14475;DHT22;7323;50.848;4.334;2024-01-15T05:03:19;3.40;74.30
14475;DHT22;7323;50.848;4.334;2024-01-15T05:05:45;3.30;67.80
14475;DHT22;7323;50.848;4.334;2024-01-15T05:08:11;3.20;69.80
14475;DHT22;7323;50.848;4.334;2024-01-15T05:10:37;3.10;74.60
14475;DHT22;7323;50.848;4.334;2024-01-15T05:13:02;3.20;78.40
14475;DHT22;7323;50.848;4.334;2024-01-15T05:15:28;3.20;82.20
14475;DHT22;7323;50.848;4.334;2024-01-15T05:17:54;3.10;83.60
14475;DHT22;7323;50.848;4.334;2024-01-15T05:20:19;3.10;88.30
14475;DHT22;7323;50.848;4.334;2024-01-15T05:22:45;3.10;91.20
14475;DHT22;7323;50.848;4.334;2024-01-15T05:25:11;3.20;92.00
14475;DHT22;7323;50.848;4.334;2024-01-15T05:27:37;3.20;93.60
14475;DHT22;7323;50.848;4.334;2024-01-15T05:30:03;3.10;94.20
14475;DHT22;7323;50.848;4.334;2024-01-15T05:32:29;3.10;95.10
14475;DHT22;7323;50.848;4.334;2024-01-15T05:34:55;3.00;98.20
14475;DHT22;7323;50.848;4.334;2024-01-15T05:37:20;3.00;99.70
14475;DHT22;7323;50.848;4.334;2024-01-15T05:39:46;3.10;99.90
14475;DHT22;7323;50.848;4.334;2024-01-15T05:42:12;3.00;99.90
14475;DHT22;7323;50.848;4.334;2024-01-15T05:44:37;3.10;99.90
14475;DHT22;7323;50.848;4.334;2024-01-15T05:47:03;3.00;99.90
14475;DHT22;7323;50.848;4.334;2024-01-15T05:49:29;2.90;99.90
14475;DHT22;7323;50.848;4.334;2024-01-15T05:51:55;2.90;99.90
14475;DHT22;7323;50.848;4.334;2024-01-15T05:54:21;2.90;99.90
14475;DHT22;7323;50.848;4.334;2024-01-15T05:56:46;2.90;99.90
14475;DHT22;7323;50.848;4.334;2024-01-15T05:59:12;2.90;97.70
14475;DHT22;7323;50.848;4.334;2024-01-15T06:01:38;2.90;93.20
14475;DHT22;7323;50.848;4.334;2024-01-15T06:04:03;3.00;83.60
14475;DHT22;7323;50.848;4.334;2024-01-15T06:06:29;3.00;78.40
14475;DHT22;7323;50.848;4.334;2024-01-15T06:08:54;3.10;72.40
14475;DHT22;7323;50.848;4.334;2024-01-15T06:11:20;3.30;64.10
14475;DHT22;7323;50.848;4.334;2024-01-15T06:13:46;3.10;51.60
14475;DHT22;7323;50.848;4.334;2024-01-15T06:16:13;3.10;47.50
14475;DHT22;7323;50.848;4.334;2024-01-15T06:18:40;3.10;44.60
14475;DHT22;7323;50.848;4.334;2024-01-15T06:21:06;3.10;48.40
14475;DHT22;7323;50.848;4.334;2024-01-15T06:23:31;3.10;50.20
14475;DHT22;7323;50.848;4.334;2024-01-15T06:25:57;3.10;52.80
14475;DHT22;7323;50.848;4.334;2024-01-15T06:28:23;3.00;59.30
14475;DHT22;7323;50.848;4.334;2024-01-15T06:30:48;3.00;65.30
14475;DHT22;7323;50.848;4.334;2024-01-15T06:33:14;3.00;72.50
14475;DHT22;7323;50.848;4.334;2024-01-15T06:35:41;3.10;75.60
14475;DHT22;7323;50.848;4.334;2024-01-15T06:38:06;2.90;76.00
14475;DHT22;7323;50.848;4.334;2024-01-15T06:40:32;3.00;86.40
14475;DHT22;7323;50.848;4.334;2024-01-15T06:42:58;3.00;90.40
14475;DHT22;7323;50.848;4.334;2024-01-15T06:45:24;2.90;87.60
14475;DHT22;7323;50.848;4.334;2024-01-15T06:47:50;2.90;91.60
14475;DHT22;7323;50.848;4.334;2024-01-15T06:50:16;3.00;92.10
14475;DHT22;7323;50.848;4.334;2024-01-15T06:52:41;3.00;90.00
14475;DHT22;7323;50.848;4.334;2024-01-15T06:55:07;3.00;89.60
14475;DHT22;7323;50.848;4.334;2024-01-15T06:57:33;3.00;90.40
14475;DHT22;7323;50.848;4.334;2024-01-15T06:59:59;3.00;90.50
14475;DHT22;7323;50.848;4.334;2024-01-15T07:02:24;3.10;85.80
14475;DHT22;7323;50.848;4.334;2024-01-15T07:04:52;3.00;82.90
14475;DHT22;7323;50.848;4.334;2024-01-15T07:07:17;2.90;84.50
14475;DHT22;7323;50.848;4.334;2024-01-15T07:09:43;2.80;85.90
14475;DHT22;7323;50.848;4.334;2024-01-15T07:12:08;2.90;85.00
14475;DHT22;7323;50.848;4.334;2024-01-15T07:14:34;2.80;85.50
14475;DHT22;7323;50.848;4.334;2024-01-15T07:17:00;2.80;87.70
14475;DHT22;7323;50.848;4.334;2024-01-15T07:19:26;2.80;88.20
14475;DHT22;7323;50.848;4.334;2024-01-15T07:21:52;2.70;85.50
14475;DHT22;7323;50.848;4.334;2024-01-15T07:24:17;2.50;86.50
14475;DHT22;7323;50.848;4.334;2024-01-15T07:26:43;2.50;90.60
14475;DHT22;7323;50.848;4.334;2024-01-15T07:29:10;2.50;93.60
14475;DHT22;7323;50.848;4.334;2024-01-15T07:31:35;2.60;93.20
14475;DHT22;7323;50.848;4.334;2024-01-15T07:34:01;2.80;90.50
14475;DHT22;7323;50.848;4.334;2024-01-15T07:36:26;2.60;85.10
14475;DHT22;7323;50.848;4.334;2024-01-15T07:38:52;2.60;85.00
14475;DHT22;7323;50.848;4.334;2024-01-15T07:41:18;2.70;90.20
14475;DHT22;7323;50.848;4.334;2024-01-15T07:43:43;2.70;89.10
14475;DHT22;7323;50.848;4.334;2024-01-15T07:46:09;2.70;87.10
14475;DHT22;7323;50.848;4.334;2024-01-15T07:48:34;2.70;84.70
14475;DHT22;7323;50.848;4.334;2024-01-15T07:51:00;2.70;83.70
14475;DHT22;7323;50.848;4.334;2024-01-15T07:53:25;2.70;84.60
14475;DHT22;7323;50.848;4.334;2024-01-15T07:55:51;2.70;84.90
14475;DHT22;7323;50.848;4.334;2024-01-15T07:58:17;2.60;86.50
14475;DHT22;7323;50.848;4.334;2024-01-15T08:00:42;2.60;90.30
14475;DHT22;7323;50.848;4.334;2024-01-15T08:03:08;2.70;89.70
14475;DHT22;7323;50.848;4.334;2024-01-15T08:05:34;2.70;88.80
14475;DHT22;7323;50.848;4.334;2024-01-15T08:08:00;2.70;86.90
14475;DHT22;7323;50.848;4.334;2024-01-15T08:10:26;2.70;86.00
14475;DHT22;7323;50.848;4.334;2024-01-15T08:12:51;2.60;85.00
14475;DHT22;7323;50.848;4.334;2024-01-15T08:15:17;2.60;87.50
14475;DHT22;7323;50.848;4.334;2024-01-15T08:17:43;2.70;87.40
14475;DHT22;7323;50.848;4.334;2024-01-15T08:20:09;2.70;82.10
14475;DHT22;7323;50.848;4.334;2024-01-15T08:22:35;2.80;78.40
14475;DHT22;7323;50.848;4.334;2024-01-15T08:25:02;2.80;71.60
14475;DHT22;7323;50.848;4.334;2024-01-15T08:27:29;2.80;63.50
14475;DHT22;7323;50.848;4.334;2024-01-15T08:29:54;2.90;56.30
14475;DHT22;7323;50.848;4.334;2024-01-15T08:32:20;2.90;52.10
14475;DHT22;7323;50.848;4.334;2024-01-15T08:34:46;3.00;39.90
14475;DHT22;7323;50.848;4.334;2024-01-15T08:37:14;2.90;34.50
14475;DHT22;7323;50.848;4.334;2024-01-15T08:39:40;3.00;26.60
14475;DHT22;7323;50.848;4.334;2024-01-15T08:42:05;3.10;21.30
14475;DHT22;7323;50.848;4.334;2024-01-15T08:44:31;3.10;13.80
14475;DHT22;7323;50.848;4.334;2024-01-15T08:46:57;3.00;8.90
14475;DHT22;7323;50.848;4.334;2024-01-15T08:49:23;3.00;10.60
14475;DHT22;7323;50.848;4.334;2024-01-15T08:51:48;3.00;6.30
14475;DHT22;7323;50.848;4.334;2024-01-15T08:54:14;3.10;2.30
14475;DHT22;7323;50.848;4.334;2024-01-15T08:56:40;3.00;1.00
14475;DHT22;7323;50.848;4.334;2024-01-15T08:59:06;3.00;1.00
14475;DHT22;7323;50.848;4.334;2024-01-15T09:01:32;3.00;1.00
14475;DHT22;7323;50.848;4.334;2024-01-15T09:03:58;3.00;1.00
14475;DHT22;7323;50.848;4.334;2024-01-15T09:06:24;3.00;1.00
14475;DHT22;7323;50.848;4.334;2024-01-15T09:08:49;2.90;1.00
14475;DHT22;7323;50.848;4.334;2024-01-15T09:11:15;3.00;1.00
14475;DHT22;7323;50.848;4.334;2024-01-15T09:13:41;3.10;1.00
14475;DHT22;7323;50.848;4.334;2024-01-15T09:16:07;3.20;1.00
14475;DHT22;7323;50.848;4.334;2024-01-15T09:18:32;3.30;1.00
14475;DHT22;7323;50.848;4.334;2024-01-15T09:20:59;3.30;1.00
14475;DHT22;7323;50.848;4.334;2024-01-15T09:23:25;3.30;1.00
14475;DHT22;7323;50.848;4.334;2024-01-15T09:25:50;3.40;1.00
14475;DHT22;7323;50.848;4.334;2024-01-15T09:28:18;3.30;1.00
14475;DHT22;7323;50.848;4.334;2024-01-15T09:30:43;3.40;1.00
14475;DHT22;7323;50.848;4.334;2024-01-15T09:33:10;3.40;1.00
14475;DHT22;7323;50.848;4.334;2024-01-15T09:35:36;3.50;1.00
14475;DHT22;7323;50.848;4.334;2024-01-15T09:38:02;3.40;1.00
14475;DHT22;7323;50.848;4.334;2024-01-15T09:40:31;3.50;1.00
14475;DHT22;7323;50.848;4.334;2024-01-15T09:42:58;3.60;1.00
14475;DHT22;7323;50.848;4.334;2024-01-15T09:45:25;3.60;1.00
14475;DHT22;7323;50.848;4.334;2024-01-15T09:47:51;3.70;1.00
14475;DHT22;7323;50.848;4.334;2024-01-15T09:50:17;3.70;1.00
14475;DHT22;7323;50.848;4.334;2024-01-15T09:52:44;3.60;1.00
14475;DHT22;7323;50.848;4.334;2024-01-15T09:55:11;3.50;1.00
14475;DHT22;7323;50.848;4.334;2024-01-15T09:57:39;3.60;1.00
14475;DHT22;7323;50.848;4.334;2024-01-15T10:00:05;3.60;1.00
14475;DHT22;7323;50.848;4.334;2024-01-15T10:02:33;3.70;1.00
14475;DHT22;7323;50.848;4.334;2024-01-15T10:04:59;3.80;1.00
14475;DHT22;7323;50.848;4.334;2024-01-15T10:07:25;3.80;1.00
14475;DHT22;7323;50.848;4.334;2024-01-15T10:09:51;3.90;1.00
14475;DHT22;7323;50.848;4.334;2024-01-15T10:12:17;3.90;1.00
14475;DHT22;7323;50.848;4.334;2024-01-15T10:14:43;3.90;1.00
14475;DHT22;7323;50.848;4.334;2024-01-15T10:17:15;3.90;1.00
14475;DHT22;7323;50.848;4.334;2024-01-15T10:19:41;3.90;1.00
14475;DHT22;7323;50.848;4.334;2024-01-15T10:22:08;3.90;1.00
14475;DHT22;7323;50.848;4.334;2024-01-15T10:24:39;4.00;1.00
14475;DHT22;7323;50.848;4.334;2024-01-15T10:27:09;3.90;1.00
14475;DHT22;7323;50.848;4.334;2024-01-15T10:29:36;3.90;1.00
14475;DHT22;7323;50.848;4.334;2024-01-15T10:32:03;3.90;1.00
14475;DHT22;7323;50.848;4.334;2024-01-15T10:34:30;3.90;1.00
14475;DHT22;7323;50.848;4.334;2024-01-15T10:36:55;4.00;1.00
14475;DHT22;7323;50.848;4.334;2024-01-15T10:39:22;4.10;1.00
14475;DHT22;7323;50.848;4.334;2024-01-15T10:41:49;4.20;1.00
14475;DHT22;7323;50.848;4.334;2024-01-15T10:44:19;4.20;1.00
14475;DHT22;7323;50.848;4.334;2024-01-15T10:46:45;4.10;1.00
14475;DHT22;7323;50.848;4.334;2024-01-15T10:49:11;4.10;1.00
14475;DHT22;7323;50.848;4.334;2024-01-15T10:51:38;4.20;1.00
14475;DHT22;7323;50.848;4.334;2024-01-15T10:54:04;4.10;1.00
14475;DHT22;7323;50.848;4.334;2024-01-15T10:56:32;4.20;1.00
14475;DHT22;7323;50.848;4.334;2024-01-15T10:58:59;4.30;1.00
14475;DHT22;7323;50.848;4.334;2024-01-15T11:01:25;4.30;1.00
14475;DHT22;7323;50.848;4.334;2024-01-15T11:03:51;4.40;1.00
14475;DHT22;7323;50.848;4.334;2024-01-15T11:06:19;4.60;1.00
14475;DHT22;7323;50.848;4.334;2024-01-15T11:08:49;4.70;1.00
14475;DHT22;7323;50.848;4.334;2024-01-15T11:11:17;4.70;1.00
14475;DHT22;7323;50.848;4.334;2024-01-15T11:13:46;4.60;1.00
14475;DHT22;7323;50.848;4.334;2024-01-15T11:16:13;4.50;1.00
14475;DHT22;7323;50.848;4.334;2024-01-15T11:18:41;4.50;1.00
14475;DHT22;7323;50.848;4.334;2024-01-15T11:23:46;4.40;1.00
14475;DHT22;7323;50.848;4.334;2024-01-15T11:28:58;4.50;1.00
14475;DHT22;7323;50.848;4.334;2024-01-15T11:34:11;4.50;1.00
14475;DHT22;7323;50.848;4.334;2024-01-15T11:39:45;4.50;1.00
14475;DHT22;7323;50.848;4.334;2024-01-15T11:42:12;4.60;1.00
14475;DHT22;7323;50.848;4.334;2024-01-15T11:44:39;4.50;1.00
14475;DHT22;7323;50.848;4.334;2024-01-15T11:47:10;4.60;1.00
14475;DHT22;7323;50.848;4.334;2024-01-15T11:49:58;4.50;1.00
14475;DHT22;7323;50.848;4.334;2024-01-15T11:52:26;4.70;1.00
14475;DHT22;7323;50.848;4.334;2024-01-15T11:57:34;4.80;1.00
14475;DHT22;7323;50.848;4.334;2024-01-15T12:00:04;4.90;1.00
14475;DHT22;7323;50.848;4.334;2024-01-15T12:02:30;4.70;1.00
14475;DHT22;7323;50.848;4.334;2024-01-15T12:04:56;4.80;1.00
14475;DHT22;7323;50.848;4.334;2024-01-15T12:07:22;4.90;1.00
14475;DHT22;7323;50.848;4.334;2024-01-15T12:09:47;5.00;1.00
14475;DHT22;7323;50.848;4.334;2024-01-15T12:12:21;5.10;1.00
14475;DHT22;7323;50.848;4.334;2024-01-15T12:14:49;5.20;1.00
14475;DHT22;7323;50.848;4.334;2024-01-15T12:17:16;5.30;1.00
14475;DHT22;7323;50.848;4.334;2024-01-15T12:19:42;5.20;1.00
14475;DHT22;7323;50.848;4.334;2024-01-15T12:22:08;5.30;1.00
14475;DHT22;7323;50.848;4.334;2024-01-15T12:24:35;5.20;1.00
14475;DHT22;7323;50.848;4.334;2024-01-15T12:27:01;5.20;1.00
14475;DHT22;7323;50.848;4.334;2024-01-15T12:29:27;5.30;1.00
14475;DHT22;7323;50.848;4.334;2024-01-15T12:31:53;5.30;1.00
14475;DHT22;7323;50.848;4.334;2024-01-15T12:34:19;5.30;1.00
14475;DHT22;7323;50.848;4.334;2024-01-15T12:36:46;5.30;1.00
14475;DHT22;7323;50.848;4.334;2024-01-15T12:39:13;5.20;1.00
14475;DHT22;7323;50.848;4.334;2024-01-15T12:41:39;5.10;1.00
14475;DHT22;7323;50.848;4.334;2024-01-15T12:44:04;5.10;1.00
14475;DHT22;7323;50.848;4.334;2024-01-15T12:46:30;5.10;1.00
14475;DHT22;7323;50.848;4.334;2024-01-15T12:48:57;5.00;1.00
14475;DHT22;7323;50.848;4.334;2024-01-15T12:51:26;4.80;1.00
14475;DHT22;7323;50.848;4.334;2024-01-15T12:53:52;4.90;1.00
14475;DHT22;7323;50.848;4.334;2024-01-15T12:56:18;4.80;1.00
14475;DHT22;7323;50.848;4.334;2024-01-15T12:58:44;4.70;1.00
14475;DHT22;7323;50.848;4.334;2024-01-15T13:01:10;4.70;1.00
14475;DHT22;7323;50.848;4.334;2024-01-15T13:03:36;4.70;1.00
14475;DHT22;7323;50.848;4.334;2024-01-15T13:06:01;4.60;1.00
14475;DHT22;7323;50.848;4.334;2024-01-15T13:08:27;4.60;1.00
14475;DHT22;7323;50.848;4.334;2024-01-15T13:10:55;4.70;1.00
14475;DHT22;7323;50.848;4.334;2024-01-15T13:13:22;4.90;1.00
14475;DHT22;7323;50.848;4.334;2024-01-15T13:15:48;4.60;1.00
14475;DHT22;7323;50.848;4.334;2024-01-15T13:18:14;4.50;1.00
14475;DHT22;7323;50.848;4.334;2024-01-15T13:20:39;4.50;1.00
14475;DHT22;7323;50.848;4.334;2024-01-15T13:23:05;4.60;1.00
14475;DHT22;7323;50.848;4.334;2024-01-15T13:25:31;4.80;1.00
14475;DHT22;7323;50.848;4.334;2024-01-15T13:27:57;4.60;1.00
14475;DHT22;7323;50.848;4.334;2024-01-15T13:30:23;4.50;1.00
14475;DHT22;7323;50.848;4.334;2024-01-15T13:32:49;4.60;1.00
14475;DHT22;7323;50.848;4.334;2024-01-15T13:35:14;4.60;1.00
14475;DHT22;7323;50.848;4.334;2024-01-15T13:37:40;4.60;1.00
14475;DHT22;7323;50.848;4.334;2024-01-15T13:40:09;4.70;1.00
14475;DHT22;7323;50.848;4.334;2024-01-15T13:42:37;4.80;1.00
14475;DHT22;7323;50.848;4.334;2024-01-15T13:45:05;4.80;1.00
14475;DHT22;7323;50.848;4.334;2024-01-15T13:47:31;4.80;1.00
14475;DHT22;7323;50.848;4.334;2024-01-15T13:49:57;4.90;1.00
14475;DHT22;7323;50.848;4.334;2024-01-15T13:52:23;4.90;1.00
14475;DHT22;7323;50.848;4.334;2024-01-15T13:54:49;4.90;1.00
14475;DHT22;7323;50.848;4.334;2024-01-15T13:57:15;4.90;1.00
14475;DHT22;7323;50.848;4.334;2024-01-15T13:59:42;4.80;1.00
14475;DHT22;7323;50.848;4.334;2024-01-15T14:02:07;4.50;1.00
14475;DHT22;7323;50.848;4.334;2024-01-15T14:04:33;4.10;1.00
14475;DHT22;7323;50.848;4.334;2024-01-15T14:06:58;4.00;1.00
14475;DHT22;7323;50.848;4.334;2024-01-15T14:09:24;4.10;1.00
14475;DHT22;7323;50.848;4.334;2024-01-15T14:11:51;4.20;1.00
14475;DHT22;7323;50.848;4.334;2024-01-15T14:14:17;4.30;1.00
14475;DHT22;7323;50.848;4.334;2024-01-15T14:16:42;4.50;1.00
14475;DHT22;7323;50.848;4.334;2024-01-15T14:19:09;4.40;1.00
14475;DHT22;7323;50.848;4.334;2024-01-15T14:21:35;4.60;1.00
14475;DHT22;7323;50.848;4.334;2024-01-15T14:24:01;4.40;1.00
14475;DHT22;7323;50.848;4.334;2024-01-15T14:26:27;4.30;1.00
14475;DHT22;7323;50.848;4.334;2024-01-15T14:28:53;4.20;1.00
14475;DHT22;7323;50.848;4.334;2024-01-15T14:31:20;4.40;1.00
14475;DHT22;7323;50.848;4.334;2024-01-15T14:33:45;4.30;1.00
14475;DHT22;7323;50.848;4.334;2024-01-15T14:36:11;4.20;1.00
14475;DHT22;7323;50.848;4.334;2024-01-15T14:38:37;4.10;1.00
14475;DHT22;7323;50.848;4.334;2024-01-15T14:41:02;3.80;3.00
14475;DHT22;7323;50.848;4.334;2024-01-15T14:43:29;3.70;18.80
14475;DHT22;7323;50.848;4.334;2024-01-15T14:45:55;3.50;29.30
14475;DHT22;7323;50.848;4.334;2024-01-15T14:48:22;3.50;36.40
14475;DHT22;7323;50.848;4.334;2024-01-15T14:50:47;3.50;35.70
14475;DHT22;7323;50.848;4.334;2024-01-15T14:53:13;3.50;31.40
14475;DHT22;7323;50.848;4.334;2024-01-15T14:55:38;3.50;31.70
14475;DHT22;7323;50.848;4.334;2024-01-15T14:58:04;3.50;29.80
14475;DHT22;7323;50.848;4.334;2024-01-15T15:00:30;3.50;28.60
14475;DHT22;7323;50.848;4.334;2024-01-15T15:02:56;3.50;25.50
14475;DHT22;7323;50.848;4.334;2024-01-15T15:05:21;3.40;28.40
14475;DHT22;7323;50.848;4.334;2024-01-15T15:07:47;3.40;33.00
14475;DHT22;7323;50.848;4.334;2024-01-15T15:10:12;3.40;39.30
14475;DHT22;7323;50.848;4.334;2024-01-15T15:12:38;3.10;47.50
14475;DHT22;7323;50.848;4.334;2024-01-15T15:15:05;3.20;52.30
14475;DHT22;7323;50.848;4.334;2024-01-15T15:17:32;3.20;51.90
14475;DHT22;7323;50.848;4.334;2024-01-15T15:19:58;3.20;50.70
14475;DHT22;7323;50.848;4.334;2024-01-15T15:22:23;3.10;49.60
14475;DHT22;7323;50.848;4.334;2024-01-15T15:24:49;3.00;49.10
14475;DHT22;7323;50.848;4.334;2024-01-15T15:27:15;3.00;50.10
14475;DHT22;7323;50.848;4.334;2024-01-15T15:29:40;3.00;52.20
14475;DHT22;7323;50.848;4.334;2024-01-15T15:32:06;3.00;54.50
14475;DHT22;7323;50.848;4.334;2024-01-15T15:34:31;3.10;55.50
14475;DHT22;7323;50.848;4.334;2024-01-15T15:36:57;3.20;54.30
14475;DHT22;7323;50.848;4.334;2024-01-15T15:39:23;3.20;57.60
14475;DHT22;7323;50.848;4.334;2024-01-15T15:41:49;3.00;65.80
14475;DHT22;7323;50.848;4.334;2024-01-15T15:44:15;3.10;72.00
14475;DHT22;7323;50.848;4.334;2024-01-15T15:46:42;3.20;76.30
14475;DHT22;7323;50.848;4.334;2024-01-15T15:49:08;2.90;79.50
14475;DHT22;7323;50.848;4.334;2024-01-15T15:51:34;2.80;90.80
14475;DHT22;7323;50.848;4.334;2024-01-15T15:54:01;3.00;92.10
14475;DHT22;7323;50.848;4.334;2024-01-15T15:56:26;2.90;92.10
14475;DHT22;7323;50.848;4.334;2024-01-15T15:58:52;2.90;93.30
14475;DHT22;7323;50.848;4.334;2024-01-15T16:01:18;2.90;93.20
14475;DHT22;7323;50.848;4.334;2024-01-15T16:03:44;2.90;94.20
14475;DHT22;7323;50.848;4.334;2024-01-15T16:06:10;2.90;93.40
14475;DHT22;7323;50.848;4.334;2024-01-15T16:08:36;2.90;93.50
14475;DHT22;7323;50.848;4.334;2024-01-15T16:11:02;2.90;93.90
14475;DHT22;7323;50.848;4.334;2024-01-15T16:13:27;3.00;93.60